sensor_id;sensor_type;location;lat;lon;timestamp;temperature;humidity
30288;DHT22;17103;48.316;11.558;2023-05-01T00:01:53;18.90;34.50
30288;DHT22;17103;48.316;11.558;2023-05-01T00:04:19;18.80;33.90
30288;DHT22;17103;48.316;11.558;2023-05-01T00:06:46;18.80;33.80
30288;DHT22;17103;48.316;11.558;2023-05-01T00:09:12;18.80;33.80
30288;DHT22;17103;48.316;11.558;2023-05-01T00:11:37;18.80;33.90
30288;DHT22;17103;48.316;11.558;2023-05-01T00:14:03;18.80;33.90
30288;DHT22;17103;48.316;11.558;2023-05-01T00:16:29;18.80;33.90
30288;DHT22;17103;48.316;11.558;2023-05-01T00:18:54;18.80;33.90
30288;DHT22;17103;48.316;11.558;2023-05-01T00:21:20;18.80;34.00
30288;DHT22;17103;48.316;11.558;2023-05-01T00:23:46;18.80;34.00
30288;DHT22;17103;48.316;11.558;2023-05-01T00:26:11;18.80;34.00
30288;DHT22;17103;48.316;11.558;2023-05-01T00:28:37;18.80;34.00
30288;DHT22;17103;48.316;11.558;2023-05-01T00:31:02;18.70;34.00
30288;DHT22;17103;48.316;11.558;2023-05-01T00:33:28;18.70;34.10
30288;DHT22;17103;48.316;11.558;2023-05-01T00:35:54;18.60;34.00
30288;DHT22;17103;48.316;11.558;2023-05-01T00:38:20;18.70;34.10
30288;DHT22;17103;48.316;11.558;2023-05-01T00:40:49;18.60;34.00
30288;DHT22;17103;48.316;11.558;2023-05-01T00:43:14;18.60;34.10
30288;DHT22;17103;48.316;11.558;2023-05-01T00:45:43;18.60;34.20
30288;DHT22;17103;48.316;11.558;2023-05-01T00:48:09;18.60;34.20
30288;DHT22;17103;48.316;11.558;2023-05-01T00:50:36;18.50;34.10
30288;DHT22;17103;48.316;11.558;2023-05-01T00:53:01;18.50;34.20
30288;DHT22;17103;48.316;11.558;2023-05-01T00:55:30;18.50;34.20
30288;DHT22;17103;48.316;11.558;2023-05-01T00:57:55;18.80;34.50
30288;DHT22;17103;48.316;11.558;2023-05-01T01:00:21;18.60;34.40
30288;DHT22;17103;48.316;11.558;2023-05-01T01:02:49;18.50;34.30
30288;DHT22;17103;48.316;11.558;2023-05-01T01:05:15;18.60;34.40
30288;DHT22;17103;48.316;11.558;2023-05-01T01:08:18;18.70;34.60
30288;DHT22;17103;48.316;11.558;2023-05-01T01:10:53;18.40;34.50
30288;DHT22;17103;48.316;11.558;2023-05-01T01:13:30;18.40;34.40
30288;DHT22;17103;48.316;11.558;2023-05-01T01:16:08;18.40;34.50
30288;DHT22;17103;48.316;11.558;2023-05-01T01:18:45;18.40;34.50
30288;DHT22;17103;48.316;11.558;2023-05-01T01:21:21;18.40;34.60
30288;DHT22;17103;48.316;11.558;2023-05-01T01:24:20;18.30;34.50
30288;DHT22;17103;48.316;11.558;2023-05-01T01:30:51;18.30;34.60
30288;DHT22;17103;48.316;11.558;2023-05-01T01:36:05;18.20;34.60
30288;DHT22;17103;48.316;11.558;2023-05-01T01:38:53;18.20;34.60
30288;DHT22;17103;48.316;11.558;2023-05-01T01:41:29;18.20;34.70
30288;DHT22;17103;48.316;11.558;2023-05-01T01:44:03;18.20;34.70
30288;DHT22;17103;48.316;11.558;2023-05-01T01:46:36;18.20;34.70
30288;DHT22;17103;48.316;11.558;2023-05-01T01:49:05;18.10;34.60
30288;DHT22;17103;48.316;11.558;2023-05-01T01:51:31;18.10;34.60
30288;DHT22;17103;48.316;11.558;2023-05-01T01:53:59;18.10;34.70
30288;DHT22;17103;48.316;11.558;2023-05-01T01:56:26;18.10;34.70
30288;DHT22;17103;48.316;11.558;2023-05-01T01:58:54;18.00;34.70
30288;DHT22;17103;48.316;11.558;2023-05-01T02:01:22;18.00;34.70
30288;DHT22;17103;48.316;11.558;2023-05-01T02:03:48;18.00;34.70
30288;DHT22;17103;48.316;11.558;2023-05-01T02:06:15;18.00;34.70
30288;DHT22;17103;48.316;11.558;2023-05-01T02:08:42;18.00;34.70
30288;DHT22;17103;48.316;11.558;2023-05-01T02:11:09;17.90;34.80
30288;DHT22;17103;48.316;11.558;2023-05-01T02:13:37;18.00;34.80
30288;DHT22;17103;48.316;11.558;2023-05-01T02:16:04;17.90;34.80
30288;DHT22;17103;48.316;11.558;2023-05-01T02:18:30;17.90;34.80
30288;DHT22;17103;48.316;11.558;2023-05-01T02:20:58;17.90;34.80
30288;DHT22;17103;48.316;11.558;2023-05-01T02:23:26;17.90;34.90
30288;DHT22;17103;48.316;11.558;2023-05-01T02:25:53;17.80;34.80
30288;DHT22;17103;48.316;11.558;2023-05-01T02:28:23;17.80;34.90
30288;DHT22;17103;48.316;11.558;2023-05-01T02:30:51;17.80;34.90
30288;DHT22;17103;48.316;11.558;2023-05-01T02:33:17;17.80;34.90
30288;DHT22;17103;48.316;11.558;2023-05-01T02:35:43;17.90;35.00
30288;DHT22;17103;48.316;11.558;2023-05-01T02:38:15;17.80;34.90
30288;DHT22;17103;48.316;11.558;2023-05-01T02:40:45;17.70;34.90
30288;DHT22;17103;48.316;11.558;2023-05-01T02:43:17;17.70;34.90
30288;DHT22;17103;48.316;11.558;2023-05-01T02:45:44;17.70;34.90
30288;DHT22;17103;48.316;11.558;2023-05-01T02:48:14;17.70;35.00
30288;DHT22;17103;48.316;11.558;2023-05-01T02:50:40;17.70;35.00
30288;DHT22;17103;48.316;11.558;2023-05-01T02:53:11;17.60;35.00
30288;DHT22;17103;48.316;11.558;2023-05-01T02:55:37;17.60;35.00
30288;DHT22;17103;48.316;11.558;2023-05-01T02:58:03;17.60;35.00
30288;DHT22;17103;48.316;11.558;2023-05-01T03:00:28;17.60;35.10
30288;DHT22;17103;48.316;11.558;2023-05-01T03:02:55;17.60;35.10
30288;DHT22;17103;48.316;11.558;2023-05-01T03:05:21;17.50;35.10
30288;DHT22;17103;48.316;11.558;2023-05-01T03:07:47;17.50;35.10
30288;DHT22;17103;48.316;11.558;2023-05-01T03:10:13;17.50;35.10
30288;DHT22;17103;48.316;11.558;2023-05-01T03:12:38;17.50;35.10
30288;DHT22;17103;48.316;11.558;2023-05-01T03:15:05;17.50;35.10
30288;DHT22;17103;48.316;11.558;2023-05-01T03:17:30;17.40;35.10
30288;DHT22;17103;48.316;11.558;2023-05-01T03:19:56;17.40;35.20
30288;DHT22;17103;48.316;11.558;2023-05-01T03:22:22;17.40;35.20
30288;DHT22;17103;48.316;11.558;2023-05-01T03:24:47;17.40;35.30
30288;DHT22;17103;48.316;11.558;2023-05-01T03:27:14;17.40;35.50
30288;DHT22;17103;48.316;11.558;2023-05-01T03:29:40;17.30;35.40
30288;DHT22;17103;48.316;11.558;2023-05-01T03:32:05;17.30;35.40
30288;DHT22;17103;48.316;11.558;2023-05-01T03:34:31;17.30;35.40
30288;DHT22;17103;48.316;11.558;2023-05-01T03:36:57;17.30;35.40
30288;DHT22;17103;48.316;11.558;2023-05-01T03:39:22;17.30;35.40
30288;DHT22;17103;48.316;11.558;2023-05-01T03:41:48;17.30;35.40
30288;DHT22;17103;48.316;11.558;2023-05-01T03:44:14;17.30;35.40
30288;DHT22;17103;48.316;11.558;2023-05-01T03:46:39;17.30;35.40
30288;DHT22;17103;48.316;11.558;2023-05-01T03:49:05;17.40;35.50
30288;DHT22;17103;48.316;11.558;2023-05-01T03:51:32;17.30;35.50
30288;DHT22;17103;48.316;11.558;2023-05-01T03:53:57;17.50;35.60
30288;DHT22;17103;48.316;11.558;2023-05-01T03:56:24;17.20;35.40
30288;DHT22;17103;48.316;11.558;2023-05-01T03:58:53;17.20;35.50
30288;DHT22;17103;48.316;11.558;2023-05-01T04:01:19;17.20;35.50
30288;DHT22;17103;48.316;11.558;2023-05-01T04:03:45;17.20;35.50
30288;DHT22;17103;48.316;11.558;2023-05-01T04:06:14;17.20;35.50
30288;DHT22;17103;48.316;11.558;2023-05-01T04:08:41;17.20;35.50
30288;DHT22;17103;48.316;11.558;2023-05-01T04:11:08;17.20;36.00
30288;DHT22;17103;48.316;11.558;2023-05-01T04:13:33;17.20;35.60
30288;DHT22;17103;48.316;11.558;2023-05-01T04:15:59;17.20;35.60
30288;DHT22;17103;48.316;11.558;2023-05-01T04:18:25;17.20;35.60
30288;DHT22;17103;48.316;11.558;2023-05-01T04:20:51;17.20;35.70
30288;DHT22;17103;48.316;11.558;2023-05-01T04:23:17;17.20;35.70
30288;DHT22;17103;48.316;11.558;2023-05-01T04:25:42;17.20;35.80
30288;DHT22;17103;48.316;11.558;2023-05-01T04:28:11;17.20;35.80
30288;DHT22;17103;48.316;11.558;2023-05-01T04:30:37;17.20;36.40
30288;DHT22;17103;48.316;11.558;2023-05-01T04:33:03;17.30;35.90
30288;DHT22;17103;48.316;11.558;2023-05-01T04:35:39;17.20;35.60
30288;DHT22;17103;48.316;11.558;2023-05-01T04:38:05;17.20;35.30
30288;DHT22;17103;48.316;11.558;2023-05-01T04:40:31;17.20;35.20
30288;DHT22;17103;48.316;11.558;2023-05-01T04:42:57;17.10;35.00
30288;DHT22;17103;48.316;11.558;2023-05-01T04:45:23;17.00;35.00
30288;DHT22;17103;48.316;11.558;2023-05-01T04:47:48;17.00;35.00
30288;DHT22;17103;48.316;11.558;2023-05-01T04:50:14;16.80;35.00
30288;DHT22;17103;48.316;11.558;2023-05-01T04:52:40;16.70;35.10
30288;DHT22;17103;48.316;11.558;2023-05-01T04:55:06;16.60;35.20
30288;DHT22;17103;48.316;11.558;2023-05-01T04:57:31;16.50;35.40
30288;DHT22;17103;48.316;11.558;2023-05-01T04:59:58;16.40;35.50
30288;DHT22;17103;48.316;11.558;2023-05-01T05:02:24;16.30;35.70
30288;DHT22;17103;48.316;11.558;2023-05-01T05:04:50;16.20;35.70
30288;DHT22;17103;48.316;11.558;2023-05-01T05:07:18;16.30;36.20
30288;DHT22;17103;48.316;11.558;2023-05-01T05:09:44;16.10;36.20
30288;DHT22;17103;48.316;11.558;2023-05-01T05:12:12;16.00;36.40
30288;DHT22;17103;48.316;11.558;2023-05-01T05:14:42;15.90;36.60
30288;DHT22;17103;48.316;11.558;2023-05-01T05:17:08;15.90;36.70
30288;DHT22;17103;48.316;11.558;2023-05-01T05:19:34;15.80;36.90
30288;DHT22;17103;48.316;11.558;2023-05-01T05:22:02;15.80;37.10
30288;DHT22;17103;48.316;11.558;2023-05-01T05:24:28;15.70;37.30
30288;DHT22;17103;48.316;11.558;2023-05-01T05:26:54;15.70;37.30
30288;DHT22;17103;48.316;11.558;2023-05-01T05:29:20;15.70;37.50
30288;DHT22;17103;48.316;11.558;2023-05-01T05:31:46;15.70;37.50
30288;DHT22;17103;48.316;11.558;2023-05-01T05:34:13;15.60;37.60
30288;DHT22;17103;48.316;11.558;2023-05-01T05:36:38;15.60;37.70
30288;DHT22;17103;48.316;11.558;2023-05-01T05:39:04;15.60;37.60
30288;DHT22;17103;48.316;11.558;2023-05-01T05:41:30;15.60;37.60
30288;DHT22;17103;48.316;11.558;2023-05-01T05:43:55;15.60;38.20
30288;DHT22;17103;48.316;11.558;2023-05-01T05:46:21;15.60;37.80
30288;DHT22;17103;48.316;11.558;2023-05-01T05:48:46;15.30;37.70
30288;DHT22;17103;48.316;11.558;2023-05-01T05:51:12;15.60;38.10
30288;DHT22;17103;48.316;11.558;2023-05-01T05:53:38;15.60;38.10
30288;DHT22;17103;48.316;11.558;2023-05-01T05:56:03;15.90;38.50
30288;DHT22;17103;48.316;11.558;2023-05-01T05:58:29;15.60;38.20
30288;DHT22;17103;48.316;11.558;2023-05-01T06:01:00;15.60;38.30
30288;DHT22;17103;48.316;11.558;2023-05-01T06:03:29;15.90;38.60
30288;DHT22;17103;48.316;11.558;2023-05-01T06:05:54;15.70;38.40
30288;DHT22;17103;48.316;11.558;2023-05-01T06:08:23;16.40;38.90
30288;DHT22;17103;48.316;11.558;2023-05-01T06:10:49;16.70;39.20
30288;DHT22;17103;48.316;11.558;2023-05-01T06:13:15;15.60;38.40
30288;DHT22;17103;48.316;11.558;2023-05-01T06:15:40;15.50;38.40
30288;DHT22;17103;48.316;11.558;2023-05-01T06:18:10;16.00;38.80
30288;DHT22;17103;48.316;11.558;2023-05-01T06:20:36;16.00;38.90
30288;DHT22;17103;48.316;11.558;2023-05-01T06:23:03;15.80;38.70
30288;DHT22;17103;48.316;11.558;2023-05-01T06:25:29;16.60;39.30
30288;DHT22;17103;48.316;11.558;2023-05-01T06:27:55;16.30;39.10
30288;DHT22;17103;48.316;11.558;2023-05-01T06:30:21;16.00;38.90
30288;DHT22;17103;48.316;11.558;2023-05-01T06:32:46;15.90;38.70
30288;DHT22;17103;48.316;11.558;2023-05-01T06:35:13;15.90;38.70
30288;DHT22;17103;48.316;11.558;2023-05-01T06:37:38;16.40;39.20
30288;DHT22;17103;48.316;11.558;2023-05-01T06:40:06;15.80;38.70
30288;DHT22;17103;48.316;11.558;2023-05-01T06:42:33;16.00;38.60
30288;DHT22;17103;48.316;11.558;2023-05-01T06:44:59;16.00;38.60
30288;DHT22;17103;48.316;11.558;2023-05-01T06:47:25;16.40;39.00
30288;DHT22;17103;48.316;11.558;2023-05-01T06:49:51;16.40;39.20
30288;DHT22;17103;48.316;11.558;2023-05-01T06:52:17;16.00;39.00
30288;DHT22;17103;48.316;11.558;2023-05-01T06:54:43;16.60;39.40
30288;DHT22;17103;48.316;11.558;2023-05-01T06:57:08;16.70;39.40
30288;DHT22;17103;48.316;11.558;2023-05-01T06:59:34;16.60;39.30
30288;DHT22;17103;48.316;11.558;2023-05-01T07:02:00;16.40;39.00
30288;DHT22;17103;48.316;11.558;2023-05-01T07:04:25;16.20;38.80
30288;DHT22;17103;48.316;11.558;2023-05-01T07:06:52;16.40;39.00
30288;DHT22;17103;48.316;11.558;2023-05-01T07:09:19;16.40;39.10
30288;DHT22;17103;48.316;11.558;2023-05-01T07:11:45;16.30;39.10
30288;DHT22;17103;48.316;11.558;2023-05-01T07:14:11;16.40;39.00
30288;DHT22;17103;48.316;11.558;2023-05-01T07:16:37;16.60;39.10
30288;DHT22;17103;48.316;11.558;2023-05-01T07:19:08;16.90;39.20
30288;DHT22;17103;48.316;11.558;2023-05-01T07:21:39;16.50;38.80
30288;DHT22;17103;48.316;11.558;2023-05-01T07:24:05;16.60;38.80
30288;DHT22;17103;48.316;11.558;2023-05-01T07:26:32;17.00;38.90
30288;DHT22;17103;48.316;11.558;2023-05-01T07:28:58;16.70;38.80
30288;DHT22;17103;48.316;11.558;2023-05-01T07:31:26;16.80;38.90
30288;DHT22;17103;48.316;11.558;2023-05-01T07:33:53;16.70;38.80
30288;DHT22;17103;48.316;11.558;2023-05-01T07:36:20;16.70;38.80
30288;DHT22;17103;48.316;11.558;2023-05-01T07:38:50;16.80;38.80
30288;DHT22;17103;48.316;11.558;2023-05-01T07:41:20;16.80;38.80
30288;DHT22;17103;48.316;11.558;2023-05-01T07:43:48;16.80;38.80
30288;DHT22;17103;48.316;11.558;2023-05-01T07:46:14;16.80;38.90
30288;DHT22;17103;48.316;11.558;2023-05-01T07:48:41;16.90;38.90
30288;DHT22;17103;48.316;11.558;2023-05-01T07:51:07;16.90;38.70
30288;DHT22;17103;48.316;11.558;2023-05-01T07:53:35;16.90;38.70
30288;DHT22;17103;48.316;11.558;2023-05-01T07:56:07;17.00;38.60
30288;DHT22;17103;48.316;11.558;2023-05-01T07:58:36;17.00;38.50
30288;DHT22;17103;48.316;11.558;2023-05-01T08:01:04;17.00;38.40
30288;DHT22;17103;48.316;11.558;2023-05-01T08:03:31;17.00;38.50
30288;DHT22;17103;48.316;11.558;2023-05-01T08:05:59;17.00;38.40
30288;DHT22;17103;48.316;11.558;2023-05-01T08:08:26;16.90;38.40
30288;DHT22;17103;48.316;11.558;2023-05-01T08:10:53;16.90;38.60
30288;DHT22;17103;48.316;11.558;2023-05-01T08:13:19;16.90;38.60
30288;DHT22;17103;48.316;11.558;2023-05-01T08:15:46;16.90;38.70
30288;DHT22;17103;48.316;11.558;2023-05-01T08:18:12;16.80;38.90
30288;DHT22;17103;48.316;11.558;2023-05-01T08:20:48;16.90;38.80
30288;DHT22;17103;48.316;11.558;2023-05-01T08:23:21;16.80;38.70
30288;DHT22;17103;48.316;11.558;2023-05-01T08:25:50;16.80;38.70
30288;DHT22;17103;48.316;11.558;2023-05-01T08:28:17;16.80;38.50
30288;DHT22;17103;48.316;11.558;2023-05-01T08:30:46;16.70;38.50
30288;DHT22;17103;48.316;11.558;2023-05-01T08:33:14;16.70;38.80
30288;DHT22;17103;48.316;11.558;2023-05-01T08:35:40;16.60;38.80
30288;DHT22;17103;48.316;11.558;2023-05-01T08:38:06;17.30;39.40
30288;DHT22;17103;48.316;11.558;2023-05-01T08:40:36;16.50;39.40
30288;DHT22;17103;48.316;11.558;2023-05-01T08:43:03;16.40;39.20
30288;DHT22;17103;48.316;11.558;2023-05-01T08:45:34;16.40;39.10
30288;DHT22;17103;48.316;11.558;2023-05-01T08:48:11;16.30;39.40
30288;DHT22;17103;48.316;11.558;2023-05-01T08:50:38;16.30;39.30
30288;DHT22;17103;48.316;11.558;2023-05-01T08:53:15;16.30;39.60
30288;DHT22;17103;48.316;11.558;2023-05-01T08:55:48;16.30;39.70
30288;DHT22;17103;48.316;11.558;2023-05-01T08:58:20;16.70;40.00
30288;DHT22;17103;48.316;11.558;2023-05-01T09:00:55;16.20;39.80
30288;DHT22;17103;48.316;11.558;2023-05-01T09:03:22;16.10;39.60
30288;DHT22;17103;48.316;11.558;2023-05-01T09:05:50;16.60;40.00
30288;DHT22;17103;48.316;11.558;2023-05-01T09:08:15;15.30;39.10
30288;DHT22;17103;48.316;11.558;2023-05-01T09:10:44;16.90;40.60
30288;DHT22;17103;48.316;11.558;2023-05-01T09:13:11;16.00;40.20
30288;DHT22;17103;48.316;11.558;2023-05-01T09:15:37;16.10;40.20
30288;DHT22;17103;48.316;11.558;2023-05-01T09:18:10;16.60;41.00
30288;DHT22;17103;48.316;11.558;2023-05-01T09:20:43;16.00;41.00
30288;DHT22;17103;48.316;11.558;2023-05-01T09:23:19;15.90;41.00
30288;DHT22;17103;48.316;11.558;2023-05-01T09:25:49;15.80;41.70
30288;DHT22;17103;48.316;11.558;2023-05-01T09:28:21;15.70;42.10
30288;DHT22;17103;48.316;11.558;2023-05-01T09:31:24;15.60;42.80
30288;DHT22;17103;48.316;11.558;2023-05-01T09:34:00;15.40;43.00
30288;DHT22;17103;48.316;11.558;2023-05-01T09:36:29;15.90;43.80
30288;DHT22;17103;48.316;11.558;2023-05-01T09:39:28;15.80;44.20
30288;DHT22;17103;48.316;11.558;2023-05-01T09:41:56;15.00;44.60
30288;DHT22;17103;48.316;11.558;2023-05-01T09:44:40;14.50;44.50
30288;DHT22;17103;48.316;11.558;2023-05-01T09:47:20;15.60;46.20
30288;DHT22;17103;48.316;11.558;2023-05-01T09:49:48;14.80;45.80
30288;DHT22;17103;48.316;11.558;2023-05-01T09:52:14;14.90;45.50
30288;DHT22;17103;48.316;11.558;2023-05-01T09:54:45;14.40;44.70
30288;DHT22;17103;48.316;11.558;2023-05-01T09:57:14;14.60;45.30
30288;DHT22;17103;48.316;11.558;2023-05-01T09:59:40;14.60;45.40
30288;DHT22;17103;48.316;11.558;2023-05-01T10:02:06;15.60;46.00
30288;DHT22;17103;48.316;11.558;2023-05-01T10:04:33;14.70;45.40
30288;DHT22;17103;48.316;11.558;2023-05-01T10:07:13;14.60;46.70
30288;DHT22;17103;48.316;11.558;2023-05-01T10:09:39;15.00;47.80
30288;DHT22;17103;48.316;11.558;2023-05-01T10:12:05;15.00;47.80
30288;DHT22;17103;48.316;11.558;2023-05-01T10:14:31;14.60;47.30
30288;DHT22;17103;48.316;11.558;2023-05-01T10:17:16;14.50;47.40
30288;DHT22;17103;48.316;11.558;2023-05-01T10:22:59;14.30;48.20
30288;DHT22;17103;48.316;11.558;2023-05-01T10:25:28;14.20;47.80
30288;DHT22;17103;48.316;11.558;2023-05-01T10:27:57;14.00;47.50
30288;DHT22;17103;48.316;11.558;2023-05-01T10:30:26;13.00;47.20
30288;DHT22;17103;48.316;11.558;2023-05-01T10:32:56;14.00;47.90
30288;DHT22;17103;48.316;11.558;2023-05-01T10:35:26;14.00;48.20
30288;DHT22;17103;48.316;11.558;2023-05-01T10:43:23;13.90;48.50
30288;DHT22;17103;48.316;11.558;2023-05-01T10:51:15;13.90;48.20
30288;DHT22;17103;48.316;11.558;2023-05-01T10:53:48;13.90;48.50
30288;DHT22;17103;48.316;11.558;2023-05-01T11:06:32;13.80;49.20
30288;DHT22;17103;48.316;11.558;2023-05-01T11:08:58;13.80;49.70
30288;DHT22;17103;48.316;11.558;2023-05-01T11:14:08;13.70;50.10
30288;DHT22;17103;48.316;11.558;2023-05-01T11:19:43;13.70;50.30
30288;DHT22;17103;48.316;11.558;2023-05-01T11:21:57;13.70;51.40
30288;DHT22;17103;48.316;11.558;2023-05-01T11:24:31;13.70;51.00
30288;DHT22;17103;48.316;11.558;2023-05-01T11:27:00;13.70;51.70
30288;DHT22;17103;48.316;11.558;2023-05-01T11:29:30;13.70;52.40
30288;DHT22;17103;48.316;11.558;2023-05-01T11:31:57;13.70;52.60
30288;DHT22;17103;48.316;11.558;2023-05-01T11:34:23;13.70;52.00
30288;DHT22;17103;48.316;11.558;2023-05-01T11:36:50;13.90;52.50
30288;DHT22;17103;48.316;11.558;2023-05-01T11:39:17;13.70;52.60
30288;DHT22;17103;48.316;11.558;2023-05-01T11:41:43;13.60;52.60
30288;DHT22;17103;48.316;11.558;2023-05-01T11:44:15;13.60;52.30
30288;DHT22;17103;48.316;11.558;2023-05-01T11:46:41;13.60;53.00
30288;DHT22;17103;48.316;11.558;2023-05-01T11:49:06;14.10;53.40
30288;DHT22;17103;48.316;11.558;2023-05-01T11:51:34;13.60;52.90
30288;DHT22;17103;48.316;11.558;2023-05-01T11:54:08;14.40;53.80
30288;DHT22;17103;48.316;11.558;2023-05-01T11:56:35;13.60;53.60
30288;DHT22;17103;48.316;11.558;2023-05-01T11:59:11;13.60;53.20
30288;DHT22;17103;48.316;11.558;2023-05-01T12:01:39;13.60;54.00
30288;DHT22;17103;48.316;11.558;2023-05-01T12:04:06;13.70;53.70
30288;DHT22;17103;48.316;11.558;2023-05-01T12:06:41;13.70;54.00
30288;DHT22;17103;48.316;11.558;2023-05-01T12:11:45;13.70;53.80
30288;DHT22;17103;48.316;11.558;2023-05-01T12:14:14;14.30;54.40
30288;DHT22;17103;48.316;11.558;2023-05-01T12:16:43;13.80;53.80
30288;DHT22;17103;48.316;11.558;2023-05-01T12:19:09;13.90;54.00
30288;DHT22;17103;48.316;11.558;2023-05-01T12:21:37;13.90;54.30
30288;DHT22;17103;48.316;11.558;2023-05-01T12:24:11;13.80;54.10
30288;DHT22;17103;48.316;11.558;2023-05-01T12:26:37;13.90;54.40
30288;DHT22;17103;48.316;11.558;2023-05-01T12:29:04;14.00;54.10
30288;DHT22;17103;48.316;11.558;2023-05-01T12:31:33;14.00;54.10
30288;DHT22;17103;48.316;11.558;2023-05-01T12:36:27;14.10;54.10
30288;DHT22;17103;48.316;11.558;2023-05-01T12:39:09;14.10;54.10
30288;DHT22;17103;48.316;11.558;2023-05-01T12:41:40;14.20;55.10
30288;DHT22;17103;48.316;11.558;2023-05-01T12:50:36;14.30;55.00
30288;DHT22;17103;48.316;11.558;2023-05-01T12:53:02;14.40;54.90
30288;DHT22;17103;48.316;11.558;2023-05-01T12:55:51;14.40;54.90
30288;DHT22;17103;48.316;11.558;2023-05-01T12:58:17;14.40;55.20
30288;DHT22;17103;48.316;11.558;2023-05-01T13:00:52;14.50;54.80
30288;DHT22;17103;48.316;11.558;2023-05-01T13:03:27;14.50;54.80
30288;DHT22;17103;48.316;11.558;2023-05-01T13:06:03;14.60;55.30
30288;DHT22;17103;48.316;11.558;2023-05-01T13:08:39;14.90;55.50
30288;DHT22;17103;48.316;11.558;2023-05-01T13:11:14;14.70;55.10
30288;DHT22;17103;48.316;11.558;2023-05-01T13:13:45;14.70;54.90
30288;DHT22;17103;48.316;11.558;2023-05-01T13:16:15;14.70;54.70
30288;DHT22;17103;48.316;11.558;2023-05-01T13:18:44;14.80;54.40
30288;DHT22;17103;48.316;11.558;2023-05-01T13:21:19;14.90;54.40
30288;DHT22;17103;48.316;11.558;2023-05-01T13:26:32;15.00;54.50
30288;DHT22;17103;48.316;11.558;2023-05-01T13:29:02;15.00;54.10
30288;DHT22;17103;48.316;11.558;2023-05-01T13:31:30;15.80;54.70
30288;DHT22;17103;48.316;11.558;2023-05-01T13:33:58;15.00;54.40
30288;DHT22;17103;48.316;11.558;2023-05-01T13:36:32;15.10;54.40
30288;DHT22;17103;48.316;11.558;2023-05-01T13:38:58;15.10;54.40
30288;DHT22;17103;48.316;11.558;2023-05-01T13:41:25;15.10;54.10
30288;DHT22;17103;48.316;11.558;2023-05-01T13:43:52;15.10;54.30
30288;DHT22;17103;48.316;11.558;2023-05-01T13:46:21;15.20;54.40
30288;DHT22;17103;48.316;11.558;2023-05-01T13:48:46;15.20;54.30
30288;DHT22;17103;48.316;11.558;2023-05-01T13:51:13;15.50;54.80
30288;DHT22;17103;48.316;11.558;2023-05-01T13:53:41;15.70;55.00
30288;DHT22;17103;48.316;11.558;2023-05-01T13:56:10;15.40;54.70
30288;DHT22;17103;48.316;11.558;2023-05-01T13:58:39;15.30;54.90
30288;DHT22;17103;48.316;11.558;2023-05-01T14:01:15;15.40;54.90
30288;DHT22;17103;48.316;11.558;2023-05-01T14:03:55;15.10;55.20
30288;DHT22;17103;48.316;11.558;2023-05-01T14:06:35;15.40;55.80
30288;DHT22;17103;48.316;11.558;2023-05-01T14:09:05;15.60;55.40
30288;DHT22;17103;48.316;11.558;2023-05-01T14:11:31;15.60;55.70
30288;DHT22;17103;48.316;11.558;2023-05-01T14:13:58;15.70;55.20
30288;DHT22;17103;48.316;11.558;2023-05-01T14:16:26;15.80;54.90
30288;DHT22;17103;48.316;11.558;2023-05-01T14:18:54;15.90;54.80
30288;DHT22;17103;48.316;11.558;2023-05-01T14:21:23;15.90;54.50
30288;DHT22;17103;48.316;11.558;2023-05-01T14:23:53;16.10;54.20
30288;DHT22;17103;48.316;11.558;2023-05-01T14:26:20;16.30;54.70
30288;DHT22;17103;48.316;11.558;2023-05-01T14:28:46;16.50;53.90
30288;DHT22;17103;48.316;11.558;2023-05-01T14:31:26;16.10;53.10
30288;DHT22;17103;48.316;11.558;2023-05-01T14:34:01;16.10;52.90
30288;DHT22;17103;48.316;11.558;2023-05-01T14:36:28;16.20;52.90
30288;DHT22;17103;48.316;11.558;2023-05-01T14:38:58;16.20;52.80
30288;DHT22;17103;48.316;11.558;2023-05-01T14:41:24;16.20;52.70
30288;DHT22;17103;48.316;11.558;2023-05-01T14:43:51;16.30;52.90
30288;DHT22;17103;48.316;11.558;2023-05-01T14:46:31;16.80;52.80
30288;DHT22;17103;48.316;11.558;2023-05-01T14:48:57;16.40;52.10
30288;DHT22;17103;48.316;11.558;2023-05-01T14:51:23;16.90;52.80
30288;DHT22;17103;48.316;11.558;2023-05-01T14:53:49;16.50;52.40
30288;DHT22;17103;48.316;11.558;2023-05-01T14:56:15;16.60;52.30
30288;DHT22;17103;48.316;11.558;2023-05-01T14:58:41;16.70;52.20
30288;DHT22;17103;48.316;11.558;2023-05-01T15:01:07;16.70;51.80
30288;DHT22;17103;48.316;11.558;2023-05-01T15:03:33;16.70;52.10
30288;DHT22;17103;48.316;11.558;2023-05-01T15:06:05;16.70;51.80
30288;DHT22;17103;48.316;11.558;2023-05-01T15:08:33;16.80;51.70
30288;DHT22;17103;48.316;11.558;2023-05-01T15:10:59;17.20;51.60
30288;DHT22;17103;48.316;11.558;2023-05-01T15:13:25;16.80;50.90
30288;DHT22;17103;48.316;11.558;2023-05-01T15:15:50;16.80;51.00
30288;DHT22;17103;48.316;11.558;2023-05-01T15:18:23;16.80;50.80
30288;DHT22;17103;48.316;11.558;2023-05-01T15:20:49;16.80;50.80
30288;DHT22;17103;48.316;11.558;2023-05-01T15:23:15;16.90;50.90
30288;DHT22;17103;48.316;11.558;2023-05-01T15:25:41;16.90;51.10
30288;DHT22;17103;48.316;11.558;2023-05-01T15:28:09;17.20;51.20
30288;DHT22;17103;48.316;11.558;2023-05-01T15:30:35;17.30;51.50
30288;DHT22;17103;48.316;11.558;2023-05-01T15:33:01;16.80;50.90
30288;DHT22;17103;48.316;11.558;2023-05-01T15:35:26;16.80;51.00
30288;DHT22;17103;48.316;11.558;2023-05-01T15:37:52;16.80;50.90
30288;DHT22;17103;48.316;11.558;2023-05-01T15:40:19;17.00;51.10
30288;DHT22;17103;48.316;11.558;2023-05-01T15:42:45;17.00;51.20
30288;DHT22;17103;48.316;11.558;2023-05-01T15:45:12;17.30;51.30
30288;DHT22;17103;48.316;11.558;2023-05-01T15:47:38;17.20;50.90
30288;DHT22;17103;48.316;11.558;2023-05-01T15:50:07;16.80;50.70
30288;DHT22;17103;48.316;11.558;2023-05-01T15:52:33;16.80;50.80
30288;DHT22;17103;48.316;11.558;2023-05-01T15:55:00;16.80;50.90
30288;DHT22;17103;48.316;11.558;2023-05-01T15:57:25;16.90;50.80
30288;DHT22;17103;48.316;11.558;2023-05-01T15:59:51;16.80;50.80
30288;DHT22;17103;48.316;11.558;2023-05-01T16:02:20;16.90;51.20
30288;DHT22;17103;48.316;11.558;2023-05-01T16:04:46;16.90;51.20
30288;DHT22;17103;48.316;11.558;2023-05-01T16:07:16;16.90;51.10
30288;DHT22;17103;48.316;11.558;2023-05-01T16:09:41;17.00;51.30
30288;DHT22;17103;48.316;11.558;2023-05-01T16:12:07;17.00;51.50
30288;DHT22;17103;48.316;11.558;2023-05-01T16:14:38;17.30;51.70